Time;durP1;ratioP1;P1;durP2;ratioP2;P2;SDS_P1;SDS_P2;PMS_P1;PMS_P2;Temp;Humidity;BMP_temperature;BMP_pressure;BME280_temperature;BME280_humidity;BME280_pressure;Samples;Min_cycle;Max_cycle;Signal;HPM_P1;HPM_P2
2020/07/05 00:00:25;;;;;;;3;1.9;;;;;;;;;;;;;
2020/07/05 00:02:50;;;;;;;3.1;2;;;;;;;;;;;;;
2020/07/05 00:05:15;;;;;;;3.1;1.8;;;;;;;;;;;;;
2020/07/05 00:07:41;;;;;;;3;1.8;;;;;;;;;;;;;
2020/07/05 00:10:06;;;;;;;2.8;1.7;;;;;;;;;;;;;
2020/07/05 00:12:31;;;;;;;3.1;2;;;;;;;;;;;;;
2020/07/05 00:14:56;;;;;;;3.7;2.2;;;;;;;;;;;;;
2020/07/05 00:17:22;;;;;;;3.2;1.8;;;;;;;;;;;;;
2020/07/05 00:19:48;;;;;;;4.1;2;;;;;;;;;;;;;
2020/07/05 00:22:13;;;;;;;3;2;;;;;;;;;;;;;
2020/07/05 00:24:39;;;;;;;2.9;1.9;;;;;;;;;;;;;
2020/07/05 00:27:04;;;;;;;4.5;1.9;;;;;;;;;;;;;
2020/07/05 00:29:30;;;;;;;3.1;2.1;;;;;;;;;;;;;
2020/07/05 00:31:55;;;;;;;3.1;1.9;;;;;;;;;;;;;
2020/07/05 00:34:20;;;;;;;3.3;2;;;;;;;;;;;;;
2020/07/05 00:36:45;;;;;;;3.4;2;;;;;;;;;;;;;
2020/07/05 00:39:10;;;;;;;3;2.2;;;;;;;;;;;;;
2020/07/05 00:41:35;;;;;;;2.7;1.8;;;;;;;;;;;;;
2020/07/05 00:44:00;;;;;;;2.8;2;;;;;;;;;;;;;
2020/07/05 00:46:25;;;;;;;3.4;1.9;;;;;;;;;;;;;
2020/07/05 00:48:51;;;;;;;2.2;1.9;;;;;;;;;;;;;
2020/07/05 00:51:16;;;;;;;3.1;2.2;;;;;;;;;;;;;
2020/07/05 00:53:41;;;;;;;3.5;1.9;;;;;;;;;;;;;
2020/07/05 00:56:06;;;;;;;3.4;1.9;;;;;;;;;;;;;
2020/07/05 00:58:31;;;;;;;3.3;2.1;;;;;;;;;;;;;
2020/07/05 01:00:56;;;;;;;3.8;1.9;;;;;;;;;;;;;
2020/07/05 01:03:22;;;;;;;3.5;1.8;;;;;;;;;;;;;
2020/07/05 01:05:47;;;;;;;2.8;1.9;;;;;;;;;;;;;
2020/07/05 01:08:13;;;;;;;3.9;2.1;;;;;;;;;;;;;
2020/07/05 01:10:38;;;;;;;4.3;2.1;;;;;;;;;;;;;
2020/07/05 01:13:03;;;;;;;4.3;1.8;;;;;;;;;;;;;
2020/07/05 01:15:28;;;;;;;2.9;1.9;;;;;;;;;;;;;
2020/07/05 01:17:53;;;;;;;3.6;1.9;;;;;;;;;;;;;
2020/07/05 01:20:18;;;;;;;2.6;1.9;;;;;;;;;;;;;
2020/07/05 01:22:43;;;;;;;4.2;1.9;;;;;;;;;;;;;
2020/07/05 01:25:09;;;;;;;3.9;1.8;;;;;;;;;;;;;
2020/07/05 01:27:34;;;;;;;3;1.7;;;;;;;;;;;;;
2020/07/05 01:29:59;;;;;;;5.2;2.1;;;;;;;;;;;;;
2020/07/05 01:32:24;;;;;;;3.3;2;;;;;;;;;;;;;
2020/07/05 01:34:49;;;;;;;3.1;1.8;;;;;;;;;;;;;
2020/07/05 01:37:15;;;;;;;3.6;1.8;;;;;;;;;;;;;
2020/07/05 01:39:40;;;;;;;2.9;2.1;;;;;;;;;;;;;
2020/07/05 01:42:05;;;;;;;4.4;1.7;;;;;;;;;;;;;
2020/07/05 01:44:30;;;;;;;3.1;1.8;;;;;;;;;;;;;
2020/07/05 01:46:55;;;;;;;4.9;1.7;;;;;;;;;;;;;
2020/07/05 01:49:20;;;;;;;3.3;1.8;;;;;;;;;;;;;
2020/07/05 01:51:47;;;;;;;3.1;1.9;;;;;;;;;;;;;
2020/07/05 01:54:12;;;;;;;3.7;1.7;;;;;;;;;;;;;
2020/07/05 01:56:39;;;;;;;4.1;1.8;;;;;;;;;;;;;
2020/07/05 01:59:04;;;;;;;5;2;;;;;;;;;;;;;
2020/07/05 02:01:29;;;;;;;3.5;2;;;;;;;;;;;;;
2020/07/05 02:03:54;;;;;;;4.3;2;;;;;;;;;;;;;
2020/07/05 02:06:21;;;;;;;2.7;1.8;;;;;;;;;;;;;
2020/07/05 02:08:46;;;;;;;2.9;2;;;;;;;;;;;;;
2020/07/05 02:11:11;;;;;;;2.9;2.1;;;;;;;;;;;;;
2020/07/05 02:13:36;;;;;;;3.7;2.1;;;;;;;;;;;;;
2020/07/05 02:16:01;;;;;;;2.9;1.9;;;;;;;;;;;;;
2020/07/05 02:18:26;;;;;;;3.6;2.1;;;;;;;;;;;;;
2020/07/05 02:20:51;;;;;;;4;2.1;;;;;;;;;;;;;
2020/07/05 02:23:16;;;;;;;2.9;2;;;;;;;;;;;;;
2020/07/05 02:25:42;;;;;;;3.8;2.3;;;;;;;;;;;;;
2020/07/05 02:28:07;;;;;;;3.8;1.8;;;;;;;;;;;;;
2020/07/05 02:30:32;;;;;;;3.6;2.1;;;;;;;;;;;;;
2020/07/05 02:32:57;;;;;;;3;1.9;;;;;;;;;;;;;
2020/07/05 02:35:22;;;;;;;3.4;2.2;;;;;;;;;;;;;
2020/07/05 02:37:47;;;;;;;2.4;2;;;;;;;;;;;;;
2020/07/05 02:40:12;;;;;;;3.2;1.9;;;;;;;;;;;;;
2020/07/05 02:42:37;;;;;;;2.6;2.1;;;;;;;;;;;;;
2020/07/05 02:45:02;;;;;;;3.7;2;;;;;;;;;;;;;
2020/07/05 02:47:27;;;;;;;3;2.2;;;;;;;;;;;;;
2020/07/05 02:49:52;;;;;;;3.9;2.2;;;;;;;;;;;;;
2020/07/05 02:52:18;;;;;;;4.2;2.1;;;;;;;;;;;;;
2020/07/05 02:54:43;;;;;;;6.9;2.2;;;;;;;;;;;;;
2020/07/05 02:57:09;;;;;;;3.1;1.9;;;;;;;;;;;;;
2020/07/05 02:59:34;;;;;;;2.6;1.8;;;;;;;;;;;;;
2020/07/05 03:02:01;;;;;;;4.8;2.2;;;;;;;;;;;;;
2020/07/05 03:04:26;;;;;;;4.1;1.8;;;;;;;;;;;;;
2020/07/05 03:06:52;;;;;;;3.3;2.2;;;;;;;;;;;;;
2020/07/05 03:09:17;;;;;;;3.7;2;;;;;;;;;;;;;
2020/07/05 03:11:42;;;;;;;2.5;1.9;;;;;;;;;;;;;
2020/07/05 03:14:07;;;;;;;4;2.2;;;;;;;;;;;;;
2020/07/05 03:16:33;;;;;;;3.7;1.8;;;;;;;;;;;;;
2020/07/05 03:18:58;;;;;;;2.4;2;;;;;;;;;;;;;
2020/07/05 03:21:25;;;;;;;3.4;2;;;;;;;;;;;;;
2020/07/05 03:23:50;;;;;;;3.8;1.9;;;;;;;;;;;;;
2020/07/05 03:26:16;;;;;;;3.3;2;;;;;;;;;;;;;
2020/07/05 03:28:41;;;;;;;3.9;1.9;;;;;;;;;;;;;
2020/07/05 03:31:07;;;;;;;3.2;1.9;;;;;;;;;;;;;
2020/07/05 03:33:32;;;;;;;4.5;2;;;;;;;;;;;;;
2020/07/05 03:35:59;;;;;;;2.8;1.8;;;;;;;;;;;;;
2020/07/05 03:38:24;;;;;;;3.3;1.8;;;;;;;;;;;;;
2020/07/05 03:40:49;;;;;;;2.7;1.8;;;;;;;;;;;;;
2020/07/05 03:43:14;;;;;;;3.2;2.1;;;;;;;;;;;;;
2020/07/05 03:45:39;;;;;;;3.2;2.1;;;;;;;;;;;;;
2020/07/05 03:48:05;;;;;;;2.3;2;;;;;;;;;;;;;
2020/07/05 03:50:30;;;;;;;4.4;2;;;;;;;;;;;;;
2020/07/05 03:52:56;;;;;;;2.8;1.7;;;;;;;;;;;;;
2020/07/05 03:55:21;;;;;;;3.3;1.8;;;;;;;;;;;;;
2020/07/05 03:57:47;;;;;;;3.1;1.8;;;;;;;;;;;;;
2020/07/05 04:02:27;;;;;;;3.1;1.8;;;;;;;17.89;100;960.8833;;;;
2020/07/05 04:04:55;;;;;;;3.2;2;;;;;;;17.94;100;960.8936;;;;
2020/07/05 04:07:20;;;;;;;4.6;1.8;;;;;;;17.91;100;960.9167;;;;
2020/07/05 04:09:45;;;;;;;3.9;2;;;;;;;17.95;100;960.9824;;;;
2020/07/05 04:12:10;;;;;;;2.5;1.7;;;;;;;17.96;100;960.9149;;;;
2020/07/05 04:14:36;;;;;;;2.4;1.8;;;;;;;17.98;100;960.9211;;;;
2020/07/05 04:17:01;;;;;;;2.3;1.7;;;;;;;18;100;960.9069;;;;
2020/07/05 04:19:28;;;;;;;5.2;2.2;;;;;;;18.02;100;960.8723;;;;
2020/07/05 04:21:53;;;;;;;4.3;1.8;;;;;;;18.01;100;960.8741;;;;
2020/07/05 04:24:20;;;;;;;5.7;1.8;;;;;;;18.03;100;960.8292;;;;
2020/07/05 04:26:45;;;;;;;4.4;1.8;;;;;;;18.03;100;960.8358;;;;
2020/07/05 04:29:13;;;;;;;3.1;1.7;;;;;;;18.09;100;960.8676;;;;
2020/07/05 04:31:38;;;;;;;3.6;1.8;;;;;;;18.11;100;960.8708;;;;
2020/07/05 04:34:03;;;;;;;4;1.6;;;;;;;18.03;100;960.9183;;;;
2020/07/05 04:36:30;;;;;;;4.4;1.9;;;;;;;18.05;100;960.9398;;;;
2020/07/05 04:38:55;;;;;;;3.2;1.7;;;;;;;18.09;100;960.9055;;;;
2020/07/05 04:41:22;;;;;;;2.3;1.4;;;;;;;18.1;100;960.9353;;;;
2020/07/05 04:43:47;;;;;;;2.6;1.8;;;;;;;18.13;100;960.8781;;;;
2020/07/05 04:46:13;;;;;;;2.6;1.6;;;;;;;18.06;100;960.9634;;;;
2020/07/05 04:48:40;;;;;;;3;1.6;;;;;;;18.07;100;960.9411;;;;
2020/07/05 04:51:05;;;;;;;2.7;1.7;;;;;;;18.18;100;960.8692;;;;
2020/07/05 04:53:31;;;;;;;2.8;1.6;;;;;;;18.1;100;960.9328;;;;
2020/07/05 04:55:56;;;;;;;5.1;1.7;;;;;;;18.16;100;960.8144;;;;
2020/07/05 04:58:21;;;;;;;2.8;1.5;;;;;;;18.18;100;960.8477;;;;
2020/07/05 05:00:48;;;;;;;3.7;1.6;;;;;;;18.22;100;960.8502;;;;
2020/07/05 05:03:13;;;;;;;3.4;1.7;;;;;;;18.19;100;960.8881;;;;
2020/07/05 05:05:38;;;;;;;3.2;1.9;;;;;;;18.25;100;960.9019;;;;
2020/07/05 05:08:03;;;;;;;3.8;1.8;;;;;;;18.26;100;960.9182;;;;
2020/07/05 05:10:29;;;;;;;5.2;1.9;;;;;;;18.29;100;960.8791;;;;
2020/07/05 05:12:54;;;;;;;3.3;1.4;;;;;;;18.29;100;960.9345;;;;
2020/07/05 05:15:19;;;;;;;3.4;1.6;;;;;;;18.36;100;960.8461;;;;
2020/07/05 05:17:46;;;;;;;3.2;1.7;;;;;;;18.34;100;960.8044;;;;
2020/07/05 05:20:11;;;;;;;2.2;1.3;;;;;;;18.42;100;960.8076;;;;
2020/07/05 05:22:37;;;;;;;3.1;1.7;;;;;;;18.45;99.55273;960.7545;;;;
2020/07/05 05:25:02;;;;;;;2.6;1.6;;;;;;;18.49;99.45508;960.7601;;;;
2020/07/05 05:27:28;;;;;;;2;1.4;;;;;;;18.51;98.38086;960.7225;;;;
2020/07/05 05:29:53;;;;;;;4;1.7;;;;;;;18.57;99.26172;960.7525;;;;
2020/07/05 05:32:19;;;;;;;2.9;1.5;;;;;;;18.62;99.23926;960.7256;;;;
2020/07/05 05:34:45;;;;;;;2.7;1.6;;;;;;;18.65;98.43848;960.7029;;;;
2020/07/05 05:37:11;;;;;;;3.1;1.4;;;;;;;18.69;98.24707;960.7701;;;;
2020/07/05 05:39:36;;;;;;;3.4;1.8;;;;;;;18.74;97.71777;960.756;;;;
2020/07/05 05:42:02;;;;;;;5.1;1.7;;;;;;;18.71;97.48828;960.7272;;;;
2020/07/05 05:44:27;;;;;;;3.5;1.6;;;;;;;18.77;98.4873;960.7706;;;;
2020/07/05 05:46:54;;;;;;;4.4;1.5;;;;;;;18.72;97.7959;960.7029;;;;
2020/07/05 05:49:19;;;;;;;4.8;1.6;;;;;;;18.82;99.76465;960.6588;;;;
2020/07/05 05:51:44;;;;;;;2;1.4;;;;;;;18.83;98.41797;960.6824;;;;
2020/07/05 05:54:09;;;;;;;3.2;1.7;;;;;;;18.81;99.31641;960.6528;;;;
2020/07/05 05:56:34;;;;;;;3.4;1.5;;;;;;;18.73;99.43945;960.6638;;;;
2020/07/05 05:59:00;;;;;;;4.9;1.6;;;;;;;18.8;100;960.7084;;;;
2020/07/05 06:01:25;;;;;;;3.7;1.6;;;;;;;18.9;100;960.6707;;;;
2020/07/05 06:03:51;;;;;;;4;1.8;;;;;;;19.08;100;960.6199;;;;
2020/07/05 06:06:16;;;;;;;3;1.5;;;;;;;19.23;97.45117;960.6567;;;;
2020/07/05 06:08:43;;;;;;;2.6;1.5;;;;;;;19.38;96.47266;960.697;;;;
2020/07/05 06:11:08;;;;;;;4;1.6;;;;;;;19.49;94.60742;960.5889;;;;
2020/07/05 06:13:34;;;;;;;3.6;1.5;;;;;;;19.58;94.97852;960.5949;;;;
2020/07/05 06:15:59;;;;;;;4.4;1.5;;;;;;;19.72;91.2002;960.6016;;;;
2020/07/05 06:18:26;;;;;;;3.2;1.5;;;;;;;19.86;89.08984;960.5829;;;;
2020/07/05 06:20:51;;;;;;;2.9;1.5;;;;;;;19.93;86.31934;960.6312;;;;
2020/07/05 06:23:16;;;;;;;3.3;1.2;;;;;;;19.95;85.25098;960.6649;;;;
2020/07/05 06:25:42;;;;;;;2.4;1.5;;;;;;;20.12;86.31934;960.6498;;;;
2020/07/05 06:28:08;;;;;;;3.4;1.3;;;;;;;20.24;86.90625;960.6717;;;;
2020/07/05 06:30:33;;;;;;;2.2;1.3;;;;;;;20.39;83.49902;960.6674;;;;
2020/07/05 06:32:59;;;;;;;3.9;1.4;;;;;;;20.42;82.51563;960.6445;;;;
2020/07/05 06:35:24;;;;;;;2.3;1.3;;;;;;;20.52;82.31055;960.6273;;;;
2020/07/05 06:37:50;;;;;;;2;1.3;;;;;;;20.61;81.44336;960.6704;;;;
2020/07/05 06:40:16;;;;;;;3.6;1.4;;;;;;;20.51;81.66309;960.6464;;;;
2020/07/05 06:42:43;;;;;;;2.3;1.2;;;;;;;20.43;82.57617;960.6677;;;;
2020/07/05 06:45:08;;;;;;;3.6;1.3;;;;;;;20.54;82.26855;960.6842;;;;
2020/07/05 06:47:36;;;;;;;2.1;1.2;;;;;;;20.54;81.16113;960.7065;;;;
2020/07/05 06:50:01;;;;;;;1.6;1.1;;;;;;;20.67;80.91504;960.6885;;;;
2020/07/05 06:52:27;;;;;;;2.6;1.3;;;;;;;20.64;80.21582;960.733;;;;
2020/07/05 06:54:52;;;;;;;2.2;1.2;;;;;;;20.73;79.80762;960.718;;;;
2020/07/05 06:57:18;;;;;;;2.7;1.3;;;;;;;20.83;81.39258;960.6969;;;;
2020/07/05 06:59:43;;;;;;;2.1;1.1;;;;;;;20.89;79.9043;960.807;;;;
2020/07/05 07:02:10;;;;;;;2.3;1.1;;;;;;;20.84;80.55762;960.7704;;;;
2020/07/05 07:04:35;;;;;;;3.3;1.2;;;;;;;20.74;80.32715;960.76;;;;
2020/07/05 07:07:00;;;;;;;2.5;1.3;;;;;;;20.77;82.0625;960.7703;;;;
2020/07/05 07:09:25;;;;;;;3;1.4;;;;;;;20.67;81.30176;960.7828;;;;
2020/07/05 07:11:52;;;;;;;1.6;1.2;;;;;;;20.73;82.32715;960.7684;;;;
2020/07/05 07:14:17;;;;;;;3.8;1.4;;;;;;;20.71;82.125;960.7553;;;;
2020/07/05 07:16:43;;;;;;;2.3;1.3;;;;;;;20.75;83.86133;960.7631;;;;
2020/07/05 07:19:08;;;;;;;2.6;1.4;;;;;;;20.75;83.59082;960.7688;;;;
2020/07/05 07:21:33;;;;;;;2.4;1.5;;;;;;;20.65;87.5293;960.7426;;;;
2020/07/05 07:23:58;;;;;;;2.4;1.2;;;;;;;20.65;85.35059;960.7758;;;;
2020/07/05 07:26:25;;;;;;;2.8;1.5;;;;;;;20.65;85.72754;960.7288;;;;
2020/07/05 07:28:50;;;;;;;2.8;1.4;;;;;;;20.74;85.66406;960.6689;;;;
2020/07/05 07:31:16;;;;;;;3.7;1.4;;;;;;;20.9;85.67188;960.6525;;;;
2020/07/05 07:33:41;;;;;;;1.7;1.2;;;;;;;20.95;87.54199;960.66;;;;
2020/07/05 07:36:07;;;;;;;2;1.3;;;;;;;20.9;84.49316;960.6797;;;;
2020/07/05 07:38:32;;;;;;;2.4;1.1;;;;;;;21.04;84.16504;960.6811;;;;
2020/07/05 07:40:59;;;;;;;1.9;1.2;;;;;;;21.33;83.25195;960.6113;;;;
2020/07/05 07:43:24;;;;;;;3.6;1.4;;;;;;;21.54;82.2998;960.6385;;;;
2020/07/05 07:45:50;;;;;;;2.4;1.2;;;;;;;21.72;79.0293;960.6619;;;;
2020/07/05 07:48:15;;;;;;;3.3;1.2;;;;;;;21.76;77.76172;960.6808;;;;
2020/07/05 07:50:41;;;;;;;3.1;1.2;;;;;;;21.78;77.6709;960.639;;;;
2020/07/05 07:53:06;;;;;;;2.9;1.1;;;;;;;21.75;77.32129;960.5892;;;;
2020/07/05 07:55:32;;;;;;;3.1;1.4;;;;;;;21.93;76.19434;960.6777;;;;
2020/07/05 07:57:57;;;;;;;2.5;1.2;;;;;;;21.78;74.70703;960.6266;;;;
2020/07/05 08:00:27;;;;;;;2.1;1;;;;;;;21.8;75.15723;960.5563;;;;
2020/07/05 08:02:54;;;;;;;3.1;1.2;;;;;;;21.79;75.74707;960.4984;;;;
2020/07/05 08:05:19;;;;;;;2;1;;;;;;;21.83;75.31641;960.5447;;;;
2020/07/05 08:07:45;;;;;;;3.3;1.2;;;;;;;21.94;75.18262;960.5006;;;;
2020/07/05 08:10:10;;;;;;;3.5;1.2;;;;;;;22.16;75.4082;960.4545;;;;
2020/07/05 08:12:37;;;;;;;2.7;1.1;;;;;;;22.27;73.73633;960.5111;;;;
2020/07/05 08:15:02;;;;;;;2.4;1.1;;;;;;;22.37;73.5752;960.5449;;;;
2020/07/05 08:17:27;;;;;;;3.3;1.3;;;;;;;22.38;69.99414;960.5948;;;;
2020/07/05 08:19:54;;;;;;;3.1;1;;;;;;;22.38;68.70703;960.6196;;;;
2020/07/05 08:22:19;;;;;;;2.4;1;;;;;;;22.31;68.89648;960.5356;;;;
2020/07/05 08:24:44;;;;;;;2.7;1.1;;;;;;;22.15;69.33301;960.5172;;;;
2020/07/05 08:27:09;;;;;;;2;0.8;;;;;;;22.25;69.4541;960.4875;;;;
2020/07/05 08:29:35;;;;;;;2.1;1;;;;;;;22.37;69.21191;960.4495;;;;
2020/07/05 08:32:00;;;;;;;2.3;1;;;;;;;22.33;68.69824;960.4849;;;;
2020/07/05 08:34:25;;;;;;;2.5;1;;;;;;;22.42;69.2207;960.4855;;;;
2020/07/05 08:36:52;;;;;;;1.8;1.2;;;;;;;22.57;68.13281;960.4684;;;;
2020/07/05 08:39:16;;;;;;;3.2;1.6;;;;;;;22.69;70.01953;960.6248;;;;
2020/07/05 08:41:43;;;;;;;1.6;1;;;;;;;22.72;68.09668;960.5898;;;;
2020/07/05 08:44:08;;;;;;;3.7;1.2;;;;;;;22.82;66.87988;960.5314;;;;
2020/07/05 08:46:33;;;;;;;2.8;1;;;;;;;22.84;67.65332;960.5667;;;;
2020/07/05 08:49:00;;;;;;;2.5;1.1;;;;;;;22.95;66.21484;960.5188;;;;
2020/07/05 08:51:25;;;;;;;1.5;0.9;;;;;;;23.08;65.28613;960.4878;;;;
2020/07/05 08:53:51;;;;;;;3.5;1;;;;;;;23.11;63.24121;960.5628;;;;
2020/07/05 08:56:16;;;;;;;2.8;0.9;;;;;;;23.01;63.02539;960.5483;;;;
2020/07/05 08:58:42;;;;;;;2.6;0.9;;;;;;;23.06;62.44141;960.4819;;;;
2020/07/05 09:01:07;;;;;;;2.1;1;;;;;;;23.19;60.96777;960.5504;;;;
2020/07/05 09:03:55;;;;;;;3.4;0.8;;;;;;;23.28;60.25586;960.567;;;;
2020/07/05 09:06:35;;;;;;;1.6;0.8;;;;;;;23.43;60.91504;960.448;;;;
2020/07/05 09:09:12;;;;;;;3.2;1.1;;;;;;;23.68;59.33789;960.43;;;;
2020/07/05 09:11:53;;;;;;;1.9;1;;;;;;;23.76;58.25684;960.5129;;;;
2020/07/05 09:14:20;;;;;;;3.1;0.8;;;;;;;23.55;57.26953;960.5008;;;;
2020/07/05 09:16:57;;;;;;;4;0.9;;;;;;;23.54;58.05078;960.407;;;;
2020/07/05 09:19:36;;;;;;;2.8;0.9;;;;;;;23.86;58.3877;960.4139;;;;
2020/07/05 09:22:19;;;;;;;2.1;0.9;;;;;;;23.67;57.18945;960.3987;;;;
2020/07/05 09:24:52;;;;;;;1.9;0.9;;;;;;;23.46;57.64941;960.4188;;;;
2020/07/05 09:27:26;;;;;;;1.8;1;;;;;;;23.23;58.70898;960.397;;;;
2020/07/05 09:30:13;;;;;;;2.4;0.9;;;;;;;23.28;59.07129;960.3839;;;;
2020/07/05 09:32:37;;;;;;;1.9;1.1;;;;;;;23.31;59.43164;960.4345;;;;
2020/07/05 09:35:17;;;;;;;4.8;1.2;;;;;;;23.01;60.05371;960.3787;;;;
2020/07/05 09:38:15;;;;;;;3.3;1;;;;;;;22.99;61.45996;960.4745;;;;
2020/07/05 09:40:41;;;;;;;1.9;1;;;;;;;23.03;61.96289;960.2988;;;;
2020/07/05 09:43:12;;;;;;;2.2;0.9;;;;;;;23;62.62207;960.2855;;;;
2020/07/05 09:45:44;;;;;;;2.1;1.1;;;;;;;23.45;62.40039;960.3506;;;;
2020/07/05 09:48:08;;;;;;;2.6;1.1;;;;;;;23.57;61.82422;960.238;;;;
2020/07/05 09:50:44;;;;;;;2.1;1.1;;;;;;;23.55;62.48438;960.2355;;;;
2020/07/05 09:53:25;;;;;;;2.8;1.2;;;;;;;24.02;62.64648;960.2173;;;;
2020/07/05 09:55:53;;;;;;;2.4;1.1;;;;;;;23.75;62.99902;960.23;;;;
2020/07/05 09:58:33;;;;;;;2.6;1;;;;;;;23.57;63.04492;960.1772;;;;
2020/07/05 10:01:24;;;;;;;1.6;1;;;;;;;23.67;62.33594;960.116;;;;
2020/07/05 10:03:36;;;;;;;1.7;1;;;;;;;23.65;62.12988;960.1266;;;;
2020/07/05 10:06:50;;;;;;;2.9;1.2;;;;;;;23.84;62.51465;960.1638;;;;
2020/07/05 10:09:15;;;;;;;1.8;1;;;;;;;23.64;62.71094;960.1085;;;;
2020/07/05 10:11:42;;;;;;;3.3;1;;;;;;;23.78;62.71875;960.1475;;;;
2020/07/05 10:14:07;;;;;;;2.5;1;;;;;;;23.87;62.25684;960.1597;;;;
2020/07/05 10:16:34;;;;;;;2.8;1.2;;;;;;;23.91;62.39453;960.1657;;;;
2020/07/05 10:18:59;;;;;;;2.3;0.8;;;;;;;23.9;63.12793;960.0988;;;;
2020/07/05 10:21:27;;;;;;;3.1;1.4;;;;;;;24.08;63.09473;960.1437;;;;
2020/07/05 10:23:53;;;;;;;2.7;1.1;;;;;;;24.01;63.28516;960.0734;;;;
2020/07/05 10:26:18;;;;;;;2.5;1.1;;;;;;;24.25;63.34473;960.0619;;;;
2020/07/05 10:28:43;;;;;;;2.4;0.9;;;;;;;24.47;62.30566;960.075;;;;
2020/07/05 10:31:11;;;;;;;2.1;1.1;;;;;;;24.32;62.96191;960.0598;;;;
2020/07/05 10:33:36;;;;;;;1.8;1.4;;;;;;;24.63;63.55078;960.032;;;;
2020/07/05 10:36:01;;;;;;;1.3;0.9;;;;;;;24.48;61.32129;960.0553;;;;
2020/07/05 10:38:26;;;;;;;2.3;0.8;;;;;;;24.32;62.60547;960.0714;;;;
2020/07/05 10:40:52;;;;;;;2.6;1;;;;;;;24.51;63.17773;960.0469;;;;
2020/07/05 10:43:17;;;;;;;3.5;1.1;;;;;;;24.96;62.64746;960.0549;;;;
2020/07/05 10:45:44;;;;;;;2.4;0.9;;;;;;;24.64;61.97168;960.0365;;;;
2020/07/05 10:48:09;;;;;;;2.5;1;;;;;;;24.76;64.21191;959.9821;;;;
2020/07/05 10:50:35;;;;;;;2.2;1;;;;;;;25.03;62.76563;959.9819;;;;
2020/07/05 10:53:00;;;;;;;4.2;1.3;;;;;;;25.04;63.63379;959.9725;;;;
2020/07/05 10:55:26;;;;;;;3;1;;;;;;;25.02;62.1084;960.0009;;;;
2020/07/05 10:57:51;;;;;;;2.2;0.9;;;;;;;25.29;61.95605;959.9052;;;;
2020/07/05 11:00:24;;;;;;;1.3;0.8;;;;;;;25.07;61.10547;960.0048;;;;
2020/07/05 11:02:49;;;;;;;4.5;1.2;;;;;;;25.15;62.29395;959.9012;;;;
2020/07/05 11:05:14;;;;;;;3.7;1.6;;;;;;;25.34;62.36621;959.9089;;;;
2020/07/05 11:07:41;;;;;;;3.1;1.1;;;;;;;25.61;61.58496;959.8674;;;;
2020/07/05 11:10:06;;;;;;;2.4;1.1;;;;;;;25.49;62.49609;959.8923;;;;
2020/07/05 11:12:32;;;;;;;1.5;0.8;;;;;;;25.71;60.67969;959.8042;;;;
2020/07/05 11:14:57;;;;;;;2.3;1.2;;;;;;;25.81;61.19336;959.7335;;;;
2020/07/05 11:17:22;;;;;;;3.2;1.1;;;;;;;25.82;61.14844;959.79;;;;
2020/07/05 11:19:47;;;;;;;3.8;1;;;;;;;25.57;61.42285;959.8016;;;;
2020/07/05 11:22:12;;;;;;;2.3;1.1;;;;;;;25.28;61.83496;959.7629;;;;
2020/07/05 11:24:39;;;;;;;1.6;0.9;;;;;;;25.53;64.29883;959.7045;;;;
2020/07/05 11:27:04;;;;;;;1.4;1;;;;;;;25.55;61.4668;959.6788;;;;
2020/07/05 11:29:30;;;;;;;1.1;0.7;;;;;;;25.52;61.20215;959.69;;;;
2020/07/05 11:31:55;;;;;;;1.7;0.9;;;;;;;25.64;61.44434;959.6619;;;;
2020/07/05 11:34:21;;;;;;;1.8;0.7;;;;;;;25.69;60.85645;959.5945;;;;
2020/07/05 11:36:46;;;;;;;2.4;0.9;;;;;;;25.61;60.17773;959.7023;;;;
2020/07/05 11:39:15;;;;;;;2.5;0.8;;;;;;;25.83;59.20605;959.6125;;;;
2020/07/05 11:41:40;;;;;;;2.6;0.7;;;;;;;25.9;59.9541;959.6013;;;;
2020/07/05 11:44:06;;;;;;;1.9;0.8;;;;;;;26.26;59.2998;959.6202;;;;
2020/07/05 11:46:31;;;;;;;3.2;0.8;;;;;;;26.21;60.61523;959.5469;;;;
2020/07/05 11:48:58;;;;;;;1.8;1;;;;;;;26.26;60.58691;959.5352;;;;
2020/07/05 11:51:23;;;;;;;1.1;0.8;;;;;;;26.2;58.99316;959.4924;;;;
2020/07/05 11:53:49;;;;;;;2.5;0.8;;;;;;;26.22;58.55469;959.4511;;;;
2020/07/05 11:56:14;;;;;;;2.3;0.8;;;;;;;26.37;60.26758;959.4989;;;;
2020/07/05 11:58:40;;;;;;;1.5;0.8;;;;;;;26.54;58.33398;959.4723;;;;
2020/07/05 12:01:05;;;;;;;0.8;0.6;;;;;;;26.68;57.33789;959.3448;;;;
2020/07/05 12:03:30;;;;;;;1.4;0.6;;;;;;;26.93;56.35449;959.3819;;;;
2020/07/05 12:05:56;;;;;;;2.2;0.8;;;;;;;27;56.87695;959.3459;;;;
2020/07/05 12:08:21;;;;;;;2.2;0.8;;;;;;;27.15;56.73926;959.3564;;;;
2020/07/05 12:10:47;;;;;;;1.6;0.8;;;;;;;26.96;56.72754;959.3706;;;;
2020/07/05 12:13:12;;;;;;;1.4;0.6;;;;;;;26.85;56.62988;959.2503;;;;
2020/07/05 12:15:40;;;;;;;2;0.6;;;;;;;26.8;56.01465;959.2626;;;;
2020/07/05 12:18:05;;;;;;;1.3;0.5;;;;;;;26.78;56.57324;959.2704;;;;
2020/07/05 12:20:30;;;;;;;3.2;0.6;;;;;;;26.76;56.45215;959.2108;;;;
2020/07/05 12:22:55;;;;;;;1;0.6;;;;;;;27.08;56.69531;959.1561;;;;
2020/07/05 12:25:21;;;;;;;0.7;0.5;;;;;;;27.37;55.27344;959.2036;;;;
2020/07/05 12:27:46;;;;;;;2.8;0.7;;;;;;;27.31;54.66895;959.1553;;;;
2020/07/05 12:30:11;;;;;;;1.1;0.5;;;;;;;27.3;53.91406;959.2266;;;;
2020/07/05 12:32:36;;;;;;;0.7;0.6;;;;;;;27.21;54.03516;959.1808;;;;
2020/07/05 12:35:01;;;;;;;1.5;0.6;;;;;;;27.32;54.19141;959.1531;;;;
2020/07/05 12:37:26;;;;;;;0.9;0.6;;;;;;;27.47;53.80371;959.0974;;;;
2020/07/05 12:39:56;;;;;;;1.3;0.6;;;;;;;27.6;53.33984;959.1578;;;;
2020/07/05 12:42:21;;;;;;;1.7;0.6;;;;;;;27.32;54.96875;959.0644;;;;
2020/07/05 12:44:46;;;;;;;2;0.5;;;;;;;27.57;54.3291;959.0571;;;;
2020/07/05 12:47:11;;;;;;;1.5;0.7;;;;;;;27.43;54.00195;959.0305;;;;
2020/07/05 12:49:38;;;;;;;1;0.5;;;;;;;27.64;53.78711;959.0051;;;;
2020/07/05 12:52:03;;;;;;;2.7;0.6;;;;;;;27.91;53.97559;959.0492;;;;
2020/07/05 12:54:30;;;;;;;1.2;0.5;;;;;;;28.01;53.90234;959.1005;;;;
2020/07/05 12:56:55;;;;;;;1.4;0.7;;;;;;;28;52.88477;958.9953;;;;
2020/07/05 12:59:20;;;;;;;2.3;0.5;;;;;;;27.88;52.82227;958.9868;;;;
2020/07/05 13:01:45;;;;;;;0.9;0.5;;;;;;;27.64;52.80664;959.0236;;;;
2020/07/05 13:04:12;;;;;;;1;0.6;;;;;;;27.86;52.64063;958.9696;;;;
2020/07/05 13:06:37;;;;;;;1.2;0.4;;;;;;;27.59;52.9082;958.9349;;;;
2020/07/05 13:09:03;;;;;;;0.9;0.5;;;;;;;27.51;53.96289;958.9706;;;;
2020/07/05 13:11:28;;;;;;;1.6;0.6;;;;;;;27.7;53.63965;958.9077;;;;
2020/07/05 13:13:54;;;;;;;1.5;0.8;;;;;;;27.52;54.40723;958.8762;;;;
2020/07/05 13:16:19;;;;;;;1.9;0.8;;;;;;;27.65;54.12402;958.9117;;;;
2020/07/05 13:18:48;;;;;;;1.3;0.6;;;;;;;27.79;53.93652;958.8785;;;;
2020/07/05 13:21:14;;;;;;;1.5;0.5;;;;;;;27.7;53.75977;958.8658;;;;
2020/07/05 13:23:39;;;;;;;1.5;0.7;;;;;;;27.69;54.34375;958.8496;;;;
2020/07/05 13:26:04;;;;;;;0.7;0.6;;;;;;;27.91;53.0293;958.8398;;;;
2020/07/05 13:28:30;;;;;;;1;0.5;;;;;;;27.69;53.84082;958.8111;;;;
2020/07/05 13:30:56;;;;;;;1;0.5;;;;;;;27.62;53.66504;958.8566;;;;
2020/07/05 13:33:22;;;;;;;1.5;0.7;;;;;;;27.38;54.55762;958.7894;;;;
2020/07/05 13:35:47;;;;;;;3;0.6;;;;;;;27.43;54.81543;958.7559;;;;
2020/07/05 13:38:13;;;;;;;1.3;0.5;;;;;;;27.16;55.05664;958.7817;;;;
2020/07/05 13:40:38;;;;;;;2;0.6;;;;;;;27;55.89648;958.7184;;;;
2020/07/05 13:43:05;;;;;;;0.8;0.6;;;;;;;27.32;55.58887;958.7706;;;;
2020/07/05 13:45:30;;;;;;;1.4;0.6;;;;;;;27.41;54.75293;958.723;;;;
2020/07/05 13:47:56;;;;;;;2.4;0.5;;;;;;;27.46;54.35254;958.7661;;;;
2020/07/05 13:50:22;;;;;;;1.5;0.6;;;;;;;27.55;54.7207;958.7575;;;;
2020/07/05 13:52:48;;;;;;;0.9;0.5;;;;;;;27.68;54.34277;958.7042;;;;
2020/07/05 13:55:17;;;;;;;3.6;0.8;;;;;;;27.53;54.81543;958.6663;;;;
2020/07/05 13:57:42;;;;;;;1.3;0.6;;;;;;;27.2;55.4082;958.6749;;;;
2020/07/05 14:00:14;;;;;;;0.6;0.5;;;;;;;27.05;56.38184;958.6451;;;;
2020/07/05 14:02:39;;;;;;;2.8;0.7;;;;;;;26.83;56.4834;958.6271;;;;
2020/07/05 14:05:09;;;;;;;1.1;0.6;;;;;;;26.89;56.63574;958.6376;;;;
2020/07/05 14:07:34;;;;;;;2;0.7;;;;;;;26.88;57.375;958.6379;;;;
2020/07/05 14:10:00;;;;;;;1.7;0.7;;;;;;;26.92;57.09277;958.6462;;;;
2020/07/05 14:12:25;;;;;;;2.2;0.8;;;;;;;27.34;56.22656;958.5685;;;;
2020/07/05 14:14:51;;;;;;;1.2;0.7;;;;;;;27.46;56.74316;958.5486;;;;
2020/07/05 14:17:16;;;;;;;3.4;0.7;;;;;;;27.39;56.75879;958.5266;;;;
2020/07/05 14:19:43;;;;;;;1.2;0.5;;;;;;;27.35;56.62207;958.4963;;;;
2020/07/05 14:22:08;;;;;;;1.7;0.5;;;;;;;27.34;59.40625;958.4617;;;;
2020/07/05 14:24:33;;;;;;;1.7;0.8;;;;;;;27.33;56.77539;958.4512;;;;
2020/07/05 14:26:58;;;;;;;0.8;0.6;;;;;;;27.3;57.58301;958.4317;;;;
2020/07/05 14:29:25;;;;;;;1.7;0.7;;;;;;;27.91;57.67383;958.4135;;;;
2020/07/05 14:31:50;;;;;;;1.3;0.5;;;;;;;27.72;55.24512;958.3864;;;;
2020/07/05 14:34:15;;;;;;;1;0.7;;;;;;;27.63;55.92676;958.4329;;;;
2020/07/05 14:36:41;;;;;;;0.9;0.6;;;;;;;27.43;56.6084;958.365;;;;
2020/07/05 14:39:06;;;;;;;0.9;0.5;;;;;;;27.42;56.27246;958.2748;;;;
2020/07/05 14:41:32;;;;;;;1.1;0.7;;;;;;;27.81;55.21973;958.32;;;;
2020/07/05 14:43:57;;;;;;;2.7;0.7;;;;;;;28;55.20801;958.2477;;;;
2020/07/05 14:46:22;;;;;;;1.5;0.6;;;;;;;28.07;54.34277;958.211;;;;
2020/07/05 14:48:49;;;;;;;1.3;0.6;;;;;;;28.19;54.75293;958.1855;;;;
2020/07/05 14:51:14;;;;;;;1.1;0.6;;;;;;;27.93;55.39063;958.2385;;;;
2020/07/05 14:53:41;;;;;;;1.4;0.5;;;;;;;27.65;55.11719;958.2654;;;;
2020/07/05 14:56:06;;;;;;;1.4;0.5;;;;;;;27.97;55.44238;958.25;;;;
2020/07/05 14:58:32;;;;;;;2;0.7;;;;;;;27.92;55.16211;958.1721;;;;
2020/07/05 15:00:57;;;;;;;1.6;0.8;;;;;;;27.41;56.88086;958.0956;;;;
2020/07/05 15:03:25;;;;;;;1.5;0.7;;;;;;;27.16;57.8291;958.1122;;;;
2020/07/05 15:05:50;;;;;;;0.6;0.6;;;;;;;27.21;58.76855;958.0779;;;;
2020/07/05 15:08:16;;;;;;;1.6;0.7;;;;;;;27.34;57.34961;958.0522;;;;
2020/07/05 15:10:41;;;;;;;1.3;0.9;;;;;;;27.37;57.92773;958.0355;;;;
2020/07/05 15:13:08;;;;;;;1.1;0.7;;;;;;;27.47;58.26367;958.0447;;;;
2020/07/05 15:15:33;;;;;;;1.5;0.6;;;;;;;27.85;56.27734;958.0912;;;;
2020/07/05 15:18:01;;;;;;;1.8;0.6;;;;;;;28.05;56.00391;957.98;;;;
2020/07/05 15:20:26;;;;;;;1.5;0.5;;;;;;;27.89;55.37305;957.9615;;;;
2020/07/05 15:22:52;;;;;;;0.9;0.6;;;;;;;27.48;57.71387;957.913;;;;
2020/07/05 15:25:17;;;;;;;1.4;0.6;;;;;;;27.59;57.27441;957.9543;;;;
2020/07/05 15:27:43;;;;;;;1.8;0.7;;;;;;;27.95;56.74414;957.9514;;;;
2020/07/05 15:30:08;;;;;;;1.5;0.8;;;;;;;28.11;56.50195;957.9469;;;;
2020/07/05 15:32:35;;;;;;;3.4;0.7;;;;;;;28.23;57.40332;957.8089;;;;
2020/07/05 15:35:00;;;;;;;1.6;0.6;;;;;;;28.12;55.76074;957.7601;;;;
2020/07/05 15:37:26;;;;;;;2.1;0.6;;;;;;;28.13;56.70801;957.8209;;;;
2020/07/05 15:39:51;;;;;;;2.1;0.7;;;;;;;28.05;57.52539;957.8164;;;;
2020/07/05 15:42:18;;;;;;;1.8;0.7;;;;;;;28.24;55.23633;957.7344;;;;
2020/07/05 15:44:43;;;;;;;0.7;0.7;;;;;;;28.1;55.00391;957.7048;;;;